Time;durP1;ratioP1;P1;durP2;ratioP2;P2;SDS_P1;SDS_P2;PMS_P1;PMS_P2;Temp;Humidity;BMP_temperature;BMP_pressure;BME280_temperature;BME280_humidity;BME280_pressure;Samples;Min_cycle;Max_cycle;Signal;HPM_P1;HPM_P2
2022/11/26 00:02:20;;;;;;;;;72.00;55.75;;;;;9.98;60.10;100031.78;5080033;28;8844;-73
2022/11/26 00:04:49;;;;;;;;;79.00;61.50;;;;;9.91;59.92;100036.06;5087932;28;8870;-73
2022/11/26 00:07:21;;;;;;;;;82.25;61.75;;;;;9.91;60.48;100038.69;5089655;28;8840;-73
2022/11/26 00:09:50;;;;;;;;;79.50;63.50;;;;;9.94;60.31;100043.91;5098890;28;8916;-76
2022/11/26 00:12:21;;;;;;;;;81.25;64.50;;;;;9.97;59.97;100041.34;5092724;28;8863;-75
2022/11/26 00:14:49;;;;;;;;;84.67;65.67;;;;;10.03;59.40;100053.56;5079815;28;9618;-76
2022/11/26 00:17:20;;;;;;;;;91.50;74.00;;;;;9.99;59.29;100050.03;5071524;28;9888;-74
2022/11/26 00:19:49;;;;;;;;;81.33;63.67;;;;;10.03;58.80;100053.56;5084125;28;9638;-75
2022/11/26 00:22:24;;;;;;;;;80.75;63.50;;;;;10.06;59.01;100051.00;5083268;28;9078;-74
2022/11/26 00:24:53;;;;;;;;;72.75;59.25;;;;;10.00;59.33;100046.59;5066686;28;8838;-75
2022/11/26 00:27:25;;;;;;;;;72.25;58.75;;;;;9.93;59.74;100057.81;5067894;28;8854;-75
2022/11/26 00:29:55;;;;;;;;;73.25;58.25;;;;;9.84;60.31;100061.19;5049585;28;8858;-73
2022/11/26 00:32:26;;;;;;;;;90.67;72.33;;;;;9.68;60.83;100054.94;5067675;28;8854;-75
2022/11/26 00:34:54;;;;;;;;;91.67;69.33;;;;;9.45;61.42;100057.28;5066564;28;9406;-74
2022/11/26 00:37:27;;;;;;;;;80.50;61.75;;;;;9.68;60.41;100056.69;5067488;28;9305;-75
2022/11/26 00:39:56;;;;;;;;;92.50;78.00;;;;;9.75;59.65;100046.34;5082505;28;10198;-76
2022/11/26 00:42:25;;;;;;;;;98.25;84.75;;;;;9.82;59.17;100046.41;5067745;28;10289;-72
2022/11/26 00:44:54;;;;;;;;;93.25;76.50;;;;;9.86;59.02;100029.94;5032678;28;10048;-74
2022/11/26 00:47:23;;;;;;;;;99.25;85.25;;;;;9.90;58.41;100036.91;5067819;28;9807;-73
2022/11/26 00:49:52;;;;;;;;;94.75;80.25;;;;;9.95;57.96;100037.84;5067436;28;10236;-74
2022/11/26 00:52:33;;;;;;;;;94.75;78.75;;;;;9.98;58.13;100030.06;5063642;28;10741;-73
2022/11/26 00:55:07;;;;;;;;;89.67;69.00;;;;;9.98;58.63;100032.69;5087789;28;9928;-74
2022/11/26 00:57:36;;;;;;;;;85.00;64.00;;;;;9.99;59.02;100025.72;5085519;28;9384;-75
2022/11/26 01:00:14;;;;;;;;;83.50;64.75;;;;;10.12;58.52;100018.03;5069340;28;9125;-74
2022/11/26 01:02:43;;;;;;;;;77.25;60.25;;;;;10.06;58.54;100020.59;5053881;28;8889;-74
2022/11/26 01:05:13;;;;;;;;;79.75;60.50;;;;;10.10;58.75;100011.06;5088135;28;8866;-71
2022/11/26 01:07:44;;;;;;;;;77.00;57.50;;;;;10.09;58.93;100018.03;5089718;28;8880;-73
2022/11/26 01:10:19;;;;;;;;;72.25;54.50;;;;;10.15;58.95;100017.19;5088070;28;8847;-74
2022/11/26 01:12:49;;;;;;;;;59.75;45.50;;;;;10.08;59.01;100021.47;5086279;28;8905;-75
2022/11/26 01:15:18;;;;;;;;;56.50;45.00;;;;;10.06;59.03;100024.94;5087758;28;8851;-75
2022/11/26 01:17:47;;;;;;;;;62.00;51.25;;;;;10.06;59.47;100038.84;5067654;28;8842;-74
2022/11/26 01:20:22;;;;;;;;;69.25;54.50;;;;;10.14;58.87;100050.19;5067539;28;8943;-75
2022/11/26 01:22:55;;;;;;;;;36.50;29.75;;;;;10.06;58.75;100059.69;5067682;28;8870;-78
2022/11/26 01:25:25;;;;;;;;;73.50;59.75;;;;;10.00;58.74;100059.63;5048645;28;8877;-75
2022/11/26 01:27:55;;;;;;;;;72.00;56.00;;;;;9.93;59.20;100066.50;5067819;28;8866;-76
2022/11/26 01:30:25;;;;;;;;;79.50;62.75;;;;;9.82;59.19;100073.31;5075811;28;8867;-74
2022/11/26 01:32:54;;;;;;;;;80.25;62.75;;;;;9.46;60.75;100076.38;5088046;28;8928;-75
2022/11/26 01:35:24;;;;;;;;;78.25;62.75;;;;;9.28;61.44;100090.00;5087963;28;8856;-74
2022/11/26 01:37:54;;;;;;;;;76.75;59.00;;;;;8.87;62.91;100088.56;5087893;28;8862;-74
2022/11/26 01:40:52;;;;;;;;;76.25;59.25;;;;;8.66;64.33;100094.31;5086149;28;8878;-74
2022/11/26 01:43:25;;;;;;;;;84.00;64.25;;;;;8.71;64.11;100104.78;5028009;28;8853;-74
2022/11/26 01:45:55;;;;;;;;;84.00;66.00;;;;;9.02;61.87;100105.25;5011720;28;8862;-74
2022/11/26 01:48:27;;;;;;;;;86.33;68.33;;;;;9.17;61.51;100097.69;5043376;28;9013;-72
2022/11/26 01:51:05;;;;;;;;;62.33;50.67;;;;;9.29;60.73;100100.44;5028666;28;9113;-74
2022/11/26 01:53:47;;;;;;;;;83.50;65.50;;;;;9.26;61.08;100097.81;5032139;28;9305;-74
2022/11/26 01:56:36;;;;;;;;;83.00;63.67;;;;;9.33;60.58;100091.81;4993269;28;8872;-74
2022/11/26 01:59:09;;;;;;;;;82.33;62.67;;;;;9.33;60.47;100091.81;5043654;28;8974;-75
2022/11/26 02:01:37;;;;;;;;;72.75;56.75;;;;;9.40;60.46;100089.31;5028324;28;9068;-73
2022/11/26 02:04:12;;;;;;;;;81.67;65.00;;;;;9.55;59.55;100098.19;5039695;28;8870;-73
2022/11/26 02:06:44;;;;;;;;;88.33;69.00;;;;;9.62;58.90;100090.44;5034102;28;9179;-75
2022/11/26 02:09:14;;;;;;;;;84.00;65.67;;;;;9.64;59.00;100089.63;5028515;28;10176;-73
2022/11/26 02:11:43;;;;;;;;;90.33;73.00;;;;;9.69;58.80;100093.13;5011467;28;9353;-73
2022/11/26 02:14:16;;;;;;;;;82.67;65.67;;;;;9.75;58.55;100102.75;5028245;28;9388;-73
2022/11/26 02:17:08;;;;;;;;;89.67;69.00;;;;;9.91;58.19;100098.59;5011354;28;9048;-74
2022/11/26 02:20:16;;;;;;;;;86.75;65.00;;;;;9.86;58.77;100102.88;5024074;28;9401;-73
2022/11/26 02:23:19;;;;;;;;;80.75;64.00;;;;;9.88;59.14;100108.97;5072742;28;8887;-73
2022/11/26 02:26:29;;;;;;;;;81.50;65.00;;;;;9.85;58.89;100109.81;5069239;28;8873;-74
2022/11/26 02:29:06;;;;;;;;;84.00;64.33;;;;;9.80;59.05;100114.09;5070852;28;8834;-73
2022/11/26 02:31:45;;;;;;;;;73.33;59.00;;;;;9.82;59.37;100116.72;5070797;28;9165;-75
2022/11/26 02:34:21;;;;;;;;;73.75;56.50;;;;;9.78;59.32;100117.56;5073778;28;9015;-75
2022/11/26 02:36:53;;;;;;;;;79.50;62.75;;;;;9.76;59.50;100118.41;5103591;28;8848;-74
2022/11/26 02:39:25;;;;;;;;;78.25;62.50;;;;;9.77;59.39;100121.88;5093528;28;8866;-74
2022/11/26 02:41:55;;;;;;;;;79.67;62.67;;;;;9.77;59.18;100132.28;5091091;28;8855;-74
2022/11/26 02:44:28;;;;;;;;;80.25;64.25;;;;;9.77;59.13;100129.69;5090861;28;9045;-74
2022/11/26 02:47:02;;;;;;;;;80.50;61.75;;;;;9.81;59.18;100133.19;5090537;28;8894;-73
2022/11/26 02:49:33;;;;;;;;;71.25;55.25;;;;;9.75;59.03;100131.38;5090622;28;8909;-75
2022/11/26 02:52:04;;;;;;;;;79.75;62.25;;;;;9.80;59.48;100132.34;5085759;28;8838;-73
2022/11/26 02:54:35;;;;;;;;;78.25;63.00;;;;;9.78;59.28;100123.63;5053547;28;8850;-74
2022/11/26 02:57:09;;;;;;;;;80.50;63.00;;;;;9.72;59.06;100116.63;5070573;28;8870;-74
2022/11/26 02:59:38;;;;;;;;;79.25;62.75;;;;;9.69;59.07;100126.97;5070943;28;8996;-73
2022/11/26 03:02:14;;;;;;;;;82.50;64.00;;;;;9.75;59.09;100123.56;5070490;28;8946;-75
2022/11/26 03:04:47;;;;;;;;;76.00;60.25;;;;;9.74;58.96;100129.66;5071271;28;8842;-73
2022/11/26 03:07:17;;;;;;;;;73.25;59.00;;;;;9.67;59.14;100133.03;5081976;28;8878;-74
2022/11/26 03:09:51;;;;;;;;;74.75;57.25;;;;;9.74;58.93;100134.88;5078411;28;8850;-73
2022/11/26 03:12:20;;;;;;;;;72.25;59.00;;;;;9.66;58.74;100128.66;5070057;28;8886;-74
2022/11/26 03:14:49;;;;;;;;;71.00;55.75;;;;;9.65;58.84;100133.00;5068377;28;8886;-73
2022/11/26 03:17:20;;;;;;;;;74.00;57.50;;;;;9.68;58.80;100146.09;5069735;28;8846;-75
2022/11/26 03:19:48;;;;;;;;;78.00;59.25;;;;;9.64;58.70;100141.69;5069806;28;8854;-74
2022/11/26 03:22:17;;;;;;;;;75.50;59.50;;;;;9.64;58.72;100144.31;5069575;28;8858;-73
2022/11/26 03:24:46;;;;;;;;;77.75;62.00;;;;;9.62;58.74;100142.50;5073183;28;8858;-75
2022/11/26 03:27:14;;;;;;;;;78.25;61.50;;;;;9.61;59.01;100140.78;5087569;28;8859;-74
2022/11/26 03:29:43;;;;;;;;;80.00;63.00;;;;;9.58;59.04;100136.38;5058723;28;8843;-73
2022/11/26 03:32:12;;;;;;;;;73.25;56.75;;;;;9.54;58.95;100138.06;5069580;28;8884;-74
2022/11/26 03:34:42;;;;;;;;;80.50;63.50;;;;;9.58;58.96;100141.59;5069428;28;9631;-73
2022/11/26 03:37:10;;;;;;;;;78.25;60.00;;;;;9.55;59.15;100138.97;5070085;28;8846;-74
2022/11/26 03:39:39;;;;;;;;;82.25;62.00;;;;;9.54;59.33;100140.66;5068370;28;8855;-74
2022/11/26 03:42:08;;;;;;;;;71.50;56.00;;;;;9.55;59.19;100146.78;5089365;28;8860;-75
2022/11/26 03:44:36;;;;;;;;;73.75;57.50;;;;;9.55;58.89;100146.78;5090260;28;8863;-73
2022/11/26 03:47:06;;;;;;;;;68.50;54.75;;;;;9.54;59.18;100151.09;5069250;28;8870;-73
2022/11/26 03:49:34;;;;;;;;;77.00;60.25;;;;;9.53;59.36;100153.69;5069839;28;8979;-76
2022/11/26 03:52:05;;;;;;;;;76.75;61.25;;;;;9.52;59.38;100151.94;5070137;28;8846;-74
2022/11/26 03:54:33;;;;;;;;;81.00;64.25;;;;;9.41;60.00;100162.19;5069737;28;8850;-74
2022/11/26 03:57:02;;;;;;;;;81.00;63.75;;;;;9.09;61.09;100178.22;5069393;28;8834;-74
2022/11/26 03:59:30;;;;;;;;;82.67;64.67;;;;;9.06;61.41;100175.56;5087135;28;8852;-74
2022/11/26 04:01:59;;;;;;;;;81.25;64.75;;;;;9.17;60.81;100180.94;5089807;28;9198;-74
2022/11/26 04:04:27;;;;;;;;;98.75;79.75;;;;;9.14;59.92;100184.34;5073414;28;8830;-74
2022/11/26 04:06:56;;;;;;;;;91.00;72.00;;;;;9.17;59.66;100183.53;5034293;28;9958;-74
2022/11/26 04:09:26;;;;;;;;;93.75;75.25;;;;;8.91;59.11;100181.38;5068987;28;9250;-75
2022/11/26 04:11:55;;;;;;;;;94.50;75.75;;;;;8.11;61.66;100182.53;5068429;28;9467;-73
2022/11/26 04:14:23;;;;;;;;;83.75;65.75;;;;;7.31;64.15;100191.19;5068485;28;10605;-74
2022/11/26 04:16:52;;;;;;;;;87.67;67.67;;;;;6.98;65.49;100196.47;5074032;28;9551;-74
2022/11/26 04:19:20;;;;;;;;;90.00;72.00;;;;;6.69;66.79;100206.09;5077907;28;9599;-72
2022/11/26 04:21:49;;;;;;;;;88.33;67.33;;;;;6.41;68.71;100200.22;5100467;28;10640;-74
2022/11/26 04:24:17;;;;;;;;;82.00;67.00;;;;;6.27;68.74;100199.81;5067677;28;9177;-74
2022/11/26 04:26:47;;;;;;;;;76.75;60.25;;;;;6.23;69.59;100208.34;5068525;28;8938;-74
2022/11/26 04:29:16;;;;;;;;;79.00;61.75;;;;;6.56;68.49;100200.63;5068820;28;8965;-74
2022/11/26 04:31:44;;;;;;;;;75.75;59.00;;;;;6.89;66.83;100201.44;5068413;28;8873;-74
2022/11/26 04:34:13;;;;;;;;;72.50;59.25;;;;;7.00;67.03;100200.84;5085430;28;8875;-73
2022/11/26 04:36:42;;;;;;;;;70.25;58.75;;;;;7.32;66.24;100202.47;5071497;28;8880;-74
2022/11/26 04:39:11;;;;;;;;;66.75;52.75;;;;;7.47;66.26;100208.00;5071580;28;8839;-72
2022/11/26 04:41:41;;;;;;;;;71.75;54.75;;;;;7.67;64.99;100202.38;5083517;28;8869;-72
2022/11/26 04:44:11;;;;;;;;;90.67;73.00;;;;;7.87;64.52;100202.81;5079049;28;8866;-74
2022/11/26 04:46:40;;;;;;;;;80.67;64.33;;;;;7.98;62.64;100199.59;5067648;28;9246;-74
2022/11/26 04:49:08;;;;;;;;;68.50;53.00;;;;;8.10;62.11;100198.94;5068220;28;9207;-73
2022/11/26 04:51:37;;;;;;;;;77.33;62.00;;;;;8.16;62.33;100206.00;5081235;28;8884;-73
2022/11/26 04:54:05;;;;;;;;;73.50;58.50;;;;;8.17;61.75;100206.03;5068169;28;8942;-74
2022/11/26 04:56:40;;;;;;;;;74.00;61.00;;;;;8.24;61.51;100198.34;5066332;28;8842;-73
2022/11/26 04:59:09;;;;;;;;;78.50;61.75;;;;;8.29;61.47;100197.59;5068479;28;8988;-72
2022/11/26 05:01:39;;;;;;;;;82.50;65.25;;;;;8.36;61.21;100204.66;5066284;28;8935;-72
2022/11/26 05:04:08;;;;;;;;;104.50;89.25;;;;;8.39;61.63;100211.63;5067864;28;8854;-73
2022/11/26 05:06:36;;;;;;;;;73.25;57.25;;;;;8.42;61.03;100208.25;5077669;28;11010;-73
2022/11/26 05:09:05;;;;;;;;;78.25;63.00;;;;;8.49;61.10;100212.72;5047441;28;8904;-73
2022/11/26 05:11:34;;;;;;;;;82.75;62.75;;;;;8.53;60.51;100224.94;5068213;28;8866;-75
2022/11/26 05:14:02;;;;;;;;;90.67;69.67;;;;;8.58;60.81;100229.38;5067641;28;8858;-73
2022/11/26 05:16:31;;;;;;;;;66.33;52.00;;;;;8.63;60.49;100233.78;5049219;28;9423;-73
2022/11/26 05:19:01;;;;;;;;;83.00;66.33;;;;;8.67;59.85;100238.19;5031872;28;9179;-73
2022/11/26 05:21:30;;;;;;;;;112.75;98.25;;;;;8.70;59.71;100230.44;5085237;28;8956;-71
2022/11/26 05:23:58;;;;;;;;;90.00;72.00;;;;;8.73;59.90;100239.19;5084781;28;10717;-73
2022/11/26 05:26:27;;;;;;;;;81.67;65.67;;;;;8.74;59.59;100238.31;5087521;28;9440;-72
2022/11/26 05:28:56;;;;;;;;;82.00;67.00;;;;;8.75;59.25;100245.28;5085322;28;9035;-74
2022/11/26 05:31:25;;;;;;;;;88.00;67.33;;;;;8.77;59.79;100245.28;5076436;28;8862;-75
2022/11/26 05:33:53;;;;;;;;;84.00;66.00;;;;;8.80;59.83;100239.28;5085053;28;9293;-73
2022/11/26 05:36:23;;;;;;;;;87.00;69.00;;;;;8.80;59.47;100247.94;5070794;28;9616;-73
2022/11/26 05:38:52;;;;;;;;;85.25;65.50;;;;;8.80;59.13;100244.47;5087658;28;9156;-74
2022/11/26 05:41:20;;;;;;;;;84.67;66.00;;;;;8.78;59.03;100244.44;5084481;28;8965;-74
2022/11/26 05:43:49;;;;;;;;;85.00;68.67;;;;;8.78;59.21;100249.66;5083301;28;9133;-74
2022/11/26 05:46:19;;;;;;;;;98.25;84.25;;;;;8.78;59.05;100249.66;5071232;28;9211;-74
2022/11/26 05:48:47;;;;;;;;;95.25;80.00;;;;;8.74;59.12;100251.31;5070999;28;10435;-74
2022/11/26 05:51:16;;;;;;;;;88.25;71.75;;;;;8.74;59.07;100247.84;5070971;28;11015;-73
2022/11/26 05:53:46;;;;;;;;;93.00;76.00;;;;;8.71;59.18;100258.19;5070797;28;9967;-74
2022/11/26 05:56:14;;;;;;;;;92.75;75.75;;;;;8.70;59.07;100252.13;5073977;28;10127;-74
2022/11/26 05:58:43;;;;;;;;;90.00;69.33;;;;;8.70;59.22;100256.44;5089644;28;9521;-73
2022/11/26 06:01:12;;;;;;;;;91.75;74.00;;;;;8.69;59.31;100260.75;5123303;27;9474;-74
2022/11/26 06:03:41;;;;;;;;;87.50;67.00;;;;;8.72;58.75;100257.34;5005677;28;9817;-73
2022/11/26 06:06:10;;;;;;;;;95.00;80.25;;;;;8.66;59.34;100255.50;5071707;28;9756;-73
2022/11/26 06:08:38;;;;;;;;;87.00;69.75;;;;;8.71;59.10;100263.38;5090877;28;9940;-74
2022/11/26 06:11:11;;;;;;;;;95.25;79.00;;;;;8.78;58.67;100262.66;5123033;27;10527;-74
2022/11/26 06:13:40;;;;;;;;;88.50;70.50;;;;;8.76;58.82;100266.94;5090886;28;9930;-74
2022/11/26 06:16:09;;;;;;;;;92.25;75.00;;;;;8.77;58.61;100276.50;5082717;28;9547;-73
2022/11/26 06:18:38;;;;;;;;;90.75;70.50;;;;;8.81;58.56;100275.72;5070686;28;9678;-75
2022/11/26 06:21:07;;;;;;;;;95.50;75.00;;;;;8.83;59.14;100273.13;5070712;28;9813;-73
2022/11/26 06:23:36;;;;;;;;;96.00;73.00;;;;;8.88;58.62;100279.28;5071131;28;10433;-72
2022/11/26 06:26:09;;;;;;;;;91.00;69.00;;;;;8.92;59.04;100274.19;5070167;28;9761;-74
2022/11/26 06:28:38;;;;;;;;;92.00;75.25;;;;;8.96;58.37;100277.72;5084288;28;9872;-74
2022/11/26 06:31:09;;;;;;;;;89.00;70.00;;;;;8.95;58.99;100283.75;5089666;28;9716;-73
2022/11/26 06:33:37;;;;;;;;;96.25;79.50;;;;;8.95;59.00;100284.63;5083216;28;9651;-75
2022/11/26 06:36:06;;;;;;;;;93.75;79.50;;;;;9.01;58.58;100286.47;5086539;28;9881;-75
2022/11/26 06:38:35;;;;;;;;;100.25;85.25;;;;;9.03;58.69;100287.38;5069816;28;9883;-72
2022/11/26 06:41:06;;;;;;;;;103.25;90.25;;;;;9.07;58.94;100288.31;5071084;28;11259;-74
2022/11/26 06:43:36;;;;;;;;;102.25;83.50;;;;;9.15;58.82;100297.13;5067743;28;10585;-74
2022/11/26 06:46:07;;;;;;;;;94.75;77.00;;;;;9.20;58.03;100299.81;5070107;28;10160;-74
2022/11/26 06:48:37;;;;;;;;;96.25;81.50;;;;;9.25;58.09;100304.25;5089244;28;10222;-73
2022/11/26 06:51:08;;;;;;;;;97.50;79.50;;;;;9.30;57.96;100306.91;5089516;28;10114;-73
2022/11/26 06:53:36;;;;;;;;;103.75;93.25;;;;;9.36;57.72;100320.91;5080325;28;10346;-75
2022/11/26 06:56:07;;;;;;;;;100.25;86.00;;;;;9.36;56.97;100320.03;5089400;28;10886;-74
2022/11/26 06:58:39;;;;;;;;;98.50;85.50;;;;;9.36;56.42;100326.13;5087800;28;10519;-74
2022/11/26 07:01:09;;;;;;;;;100.75;93.00;;;;;9.34;56.26;100327.81;5088795;28;10738;-75
2022/11/26 07:03:38;;;;;;;;;100.00;87.75;;;;;9.30;55.90;100339.03;5089542;28;11317;-74
2022/11/26 07:06:16;;;;;;;;;96.00;78.75;;;;;9.11;55.93;100342.13;5086062;28;10656;-73
2022/11/26 07:08:44;;;;;;;;;99.25;88.50;;;;;8.66;57.50;100348.22;5074051;28;10662;-75
2022/11/26 07:11:14;;;;;;;;;100.00;88.00;;;;;8.75;57.24;100349.28;5080273;28;10415;-76
2022/11/26 07:13:44;;;;;;;;;106.00;95.00;;;;;8.64;57.72;100349.91;5083659;28;10447;-74
2022/11/26 07:16:13;;;;;;;;;102.75;92.25;;;;;8.61;58.33;100355.06;5070271;28;10795;-73
2022/11/26 07:18:42;;;;;;;;;96.50;82.00;;;;;8.66;57.22;100358.59;5071526;28;11080;-75
2022/11/26 07:21:13;;;;;;;;;97.25;85.00;;;;;8.50;56.88;100360.91;5074026;28;10464;-75
2022/11/26 07:23:41;;;;;;;;;101.75;89.50;;;;;8.26;58.84;100374.22;5098885;28;10610;-74
2022/11/26 07:26:12;;;;;;;;;88.50;71.00;;;;;7.86;60.08;100372.41;5065328;28;10667;-73
2022/11/26 07:28:41;;;;;;;;;93.75;81.25;;;;;8.04;60.28;100377.19;5092412;28;10702;-76
2022/11/26 07:31:13;;;;;;;;;105.50;96.25;;;;;8.27;59.56;100373.38;5076025;28;10352;-74
2022/11/26 07:33:45;;;;;;;;;127.50;115.00;;;;;8.52;59.10;100366.13;5089015;28;11140;-76
2022/11/26 07:36:15;;;;;;;;;110.50;93.50;;;;;8.78;58.72;100375.34;5080670;28;11560;-75
2022/11/26 07:38:45;;;;;;;;;123.00;110.00;;;;;8.95;58.65;100374.81;5067420;28;11118;-73
2022/11/26 07:41:16;;;;;;;;;116.75;106.25;;;;;9.17;58.27;100376.97;5068784;28;11561;-72
2022/11/26 07:43:46;;;;;;;;;129.50;116.25;;;;;9.32;57.68;100378.97;5054847;28;11581;-72
2022/11/26 07:46:20;;;;;;;;;134.00;122.25;;;;;9.53;57.55;100381.06;5067218;28;11615;-76
2022/11/26 07:48:49;;;;;;;;;127.00;123.25;;;;;9.64;57.10;100377.75;5069482;28;11715;-74
2022/11/26 07:51:19;;;;;;;;;126.75;115.75;;;;;9.78;56.73;100383.22;5086584;28;11718;-76
2022/11/26 07:53:48;;;;;;;;;137.25;125.50;;;;;9.85;56.25;100379.84;5074023;28;11741;-74
2022/11/26 07:56:18;;;;;;;;;136.00;117.75;;;;;9.95;56.26;100381.75;5045429;28;11647;-74
2022/11/26 07:58:47;;;;;;;;;135.25;121.25;;;;;10.02;55.75;100375.78;5079906;28;11623;-75
2022/11/26 08:01:19;;;;;;;;;130.50;113.50;;;;;10.12;55.82;100379.41;5067864;28;11756;-76
2022/11/26 08:03:49;;;;;;;;;129.50;119.25;;;;;10.13;56.01;100376.81;5082085;28;11751;-75
2022/11/26 08:06:20;;;;;;;;;154.75;138.50;;;;;10.20;55.12;100377.78;5068571;28;11601;-75
2022/11/26 08:08:50;;;;;;;;;164.25;145.00;;;;;10.24;55.26;100391.72;5079815;28;11618;-75
2022/11/26 08:11:21;;;;;;;;;154.75;131.00;;;;;10.24;55.17;100386.50;5069657;28;11644;-76
2022/11/26 08:13:53;;;;;;;;;128.75;110.25;;;;;10.29;55.14;100390.06;5087791;28;11777;-73
2022/11/26 08:16:23;;;;;;;;;125.50;112.50;;;;;10.30;55.37;100397.03;5097355;28;11604;-74
2022/11/26 08:18:56;;;;;;;;;130.75;118.75;;;;;10.27;55.23;100400.47;5105026;28;12409;-75
2022/11/26 08:21:26;;;;;;;;;137.25;122.25;;;;;10.29;55.41;100401.38;5092277;28;12321;-76
2022/11/26 08:23:55;;;;;;;;;149.25;129.25;;;;;10.34;55.16;100411.91;5067925;28;11852;-76
2022/11/26 08:26:25;;;;;;;;;112.00;102.50;;;;;10.37;55.46;100405.84;5083110;28;11618;-74
2022/11/26 08:29:04;;;;;;;;;112.50;105.50;;;;;10.44;54.85;100407.69;5054420;28;11629;-76
2022/11/26 08:31:34;;;;;;;;;112.25;104.50;;;;;10.47;54.82;100411.22;5072245;28;11633;-74
2022/11/26 08:34:11;;;;;;;;;109.50;98.75;;;;;10.57;54.66;100416.53;5067979;28;11601;-76
2022/11/26 08:36:39;;;;;;;;;121.50;107.25;;;;;10.62;54.92;100418.34;5072560;28;11577;-75
2022/11/26 08:39:09;;;;;;;;;118.50;104.25;;;;;10.70;54.83;100427.19;5088264;28;12475;-74
2022/11/26 08:41:37;;;;;;;;;111.00;104.75;;;;;10.79;54.55;100418.56;5118549;27;11575;-76
2022/11/26 08:44:06;;;;;;;;;115.75;102.00;;;;;10.89;55.38;100423.06;5068002;28;11577;-75
2022/11/26 08:46:38;;;;;;;;;106.25;95.50;;;;;10.99;55.15;100428.41;5073054;28;11543;-75
2022/11/26 08:49:10;;;;;;;;;116.25;103.25;;;;;11.07;54.39;100431.97;5094477;28;11561;-75
2022/11/26 08:51:39;;;;;;;;;110.50;99.00;;;;;11.14;54.83;100436.41;5050224;28;11571;-75
2022/11/26 08:54:08;;;;;;;;;95.25;84.00;;;;;11.22;54.30;100439.09;5081894;28;11359;-75
2022/11/26 08:56:37;;;;;;;;;105.50;89.00;;;;;11.25;54.64;100444.38;5075575;28;10967;-74
2022/11/26 08:59:06;;;;;;;;;103.25;97.25;;;;;11.28;54.68;100441.78;5079032;28;11298;-76
2022/11/26 09:01:36;;;;;;;;;115.25;99.75;;;;;11.36;55.09;100440.16;5067280;28;11243;-75
2022/11/26 09:04:05;;;;;;;;;116.25;105.50;;;;;11.42;54.24;100429.75;5067795;28;11735;-75
2022/11/26 09:06:36;;;;;;;;;117.75;105.25;;;;;11.50;54.53;100430.69;5076482;28;11773;-75
2022/11/26 09:09:16;;;;;;;;;117.00;108.50;;;;;11.59;54.20;100437.75;5083230;28;11087;-77
2022/11/26 09:11:49;;;;;;;;;128.75;112.00;;;;;11.74;53.61;100430.91;5094046;28;11623;-76
2022/11/26 09:14:19;;;;;;;;;119.75;103.25;;;;;11.77;53.13;100429.19;5091544;28;11648;-75
2022/11/26 09:16:50;;;;;;;;;136.50;124.00;;;;;11.89;52.89;100426.75;5087837;28;11633;-75
2022/11/26 09:19:18;;;;;;;;;128.50;119.00;;;;;11.98;53.26;100433.75;5077028;28;11632;-76
2022/11/26 09:21:48;;;;;;;;;129.00;116.00;;;;;12.08;52.91;100433.00;5067862;28;11628;-75
2022/11/26 09:24:17;;;;;;;;;125.75;112.75;;;;;12.14;53.47;100445.22;5081182;28;11607;-76
2022/11/26 09:26:47;;;;;;;;;121.75;112.75;;;;;12.25;53.41;100446.19;5086798;28;11590;-76
2022/11/26 09:29:18;;;;;;;;;120.00;106.50;;;;;12.35;52.82;100439.28;5086874;28;11580;-77
2022/11/26 09:31:49;;;;;;;;;125.50;113.75;;;;;12.44;52.91;100443.72;5088608;28;11568;-76
2022/11/26 09:34:38;;;;;;;;;113.75;103.75;;;;;12.54;52.22;100436.78;5082383;28;11696;-78
2022/11/26 09:37:08;;;;;;;;;114.50;102.50;;;;;12.64;51.84;100442.06;5101731;28;12475;-76
2022/11/26 09:39:36;;;;;;;;;128.00;112.00;;;;;12.72;52.39;100442.13;5083221;28;11560;-76
2022/11/26 09:42:07;;;;;;;;;117.75;105.50;;;;;12.76;51.62;100438.66;5090514;28;11588;-75
2022/11/26 09:44:51;;;;;;;;;117.00;106.75;;;;;12.93;51.42;100440.44;5083636;28;11617;-76
2022/11/26 09:47:23;;;;;;;;;128.00;114.75;;;;;12.95;51.91;100437.00;5079686;28;12488;-76
2022/11/26 09:50:03;;;;;;;;;124.00;114.75;;;;;13.09;51.97;100431.78;5075335;28;11584;-75
2022/11/26 09:52:36;;;;;;;;;118.00;105.50;;;;;13.12;51.63;100431.81;5091437;28;11681;-76
2022/11/26 09:55:15;;;;;;;;;107.25;99.75;;;;;13.20;51.20;100435.31;5103918;28;11592;-76
2022/11/26 09:57:51;;;;;;;;;108.25;98.25;;;;;13.25;50.58;100436.22;5086569;28;11547;-75
2022/11/26 10:00:25;;;;;;;;;82.00;63.50;;;;;13.29;50.27;100428.34;5076880;28;10864;-76
2022/11/26 10:02:57;;;;;;;;;86.75;74.00;;;;;13.40;49.45;100430.19;5068515;28;10183;-76
2022/11/26 10:05:41;;;;;;;;;89.75;77.25;;;;;13.55;48.95;100429.31;5087532;28;11185;-75
2022/11/26 10:08:24;;;;;;;;;88.00;75.75;;;;;13.61;49.35;100429.34;5080243;28;9887;-76
2022/11/26 10:10:58;;;;;;;;;86.00;72.00;;;;;13.60;48.35;100427.56;5085345;28;9768;-77
2022/11/26 10:13:44;;;;;;;;;78.50;61.25;;;;;13.76;47.57;100436.34;5084467;28;9294;-75
2022/11/26 10:16:25;;;;;;;;;80.00;63.33;;;;;13.79;47.16;100422.34;5068360;28;8834;-76
2022/11/26 10:19:02;;;;;;;;;88.75;78.00;;;;;13.83;47.84;100432.84;5068010;28;9198;-75
2022/11/26 10:21:38;;;;;;;;;95.50;82.50;;;;;13.91;47.75;100434.59;5101018;28;9740;-76
2022/11/26 10:24:29;;;;;;;;;89.50;79.25;;;;;14.00;47.21;100445.94;5060583;28;10160;-76
2022/11/26 10:27:04;;;;;;;;;94.00;86.50;;;;;14.07;46.98;100445.97;5088237;28;10175;-76
2022/11/26 10:29:37;;;;;;;;;86.50;73.00;;;;;14.18;46.47;100452.09;5039083;28;11408;-76
2022/11/26 10:32:14;;;;;;;;;84.00;65.75;;;;;14.28;46.53;100440.69;5071000;28;9604;-77
2022/11/26 10:34:50;;;;;;;;;85.00;67.33;;;;;14.16;46.71;100446.84;5071244;28;9657;-76
2022/11/26 10:37:20;;;;;;;;;82.00;64.33;;;;;14.17;46.32;100450.31;5087754;28;9415;-76
2022/11/26 10:39:49;;;;;;;;;4.00;3.00;;;;;13.39;47.22;100451.13;5088773;28;9178;-77
2022/11/26 10:42:26;;;;;;;;;63.75;52.00;;;;;13.35;47.52;100445.00;5076681;28;9342;-75
2022/11/26 10:44:54;;;;;;;;;77.00;61.25;;;;;13.63;47.15;100447.69;5081292;28;9635;-76
2022/11/26 10:47:26;;;;;;;;;77.67;58.67;;;;;13.49;46.80;100442.41;5091971;28;8923;-75
2022/11/26 10:50:15;;;;;;;;;55.00;44.25;;;;;13.89;46.99;100437.19;5089861;28;9001;-75
2022/11/26 10:53:06;;;;;;;;;65.50;53.25;;;;;13.82;45.77;100438.09;5080376;28;8924;-75
2022/11/26 10:55:39;;;;;;;;;68.75;53.50;;;;;13.83;45.06;100435.44;5077110;28;8895;-75
2022/11/26 10:58:16;;;;;;;;;68.50;54.00;;;;;13.72;45.50;100433.72;5089685;28;8856;-74
2022/11/26 11:00:53;;;;;;;;;55.25;45.75;;;;;13.77;44.49;100443.31;5090613;28;8962;-75
2022/11/26 11:03:25;;;;;;;;;59.00;46.50;;;;;13.91;44.12;100434.59;5089336;28;8844;-76
2022/11/26 11:06:27;;;;;;;;;57.75;47.25;;;;;13.30;44.41;100431.00;5122867;27;8884;-76
2022/11/26 11:08:56;;;;;;;;;65.25;52.50;;;;;13.19;45.64;100435.31;5102065;28;8892;-75
2022/11/26 11:11:26;;;;;;;;;61.25;49.00;;;;;13.41;45.61;100431.03;5098399;28;8856;-77
2022/11/26 11:13:55;;;;;;;;;58.50;48.50;;;;;13.63;45.50;100430.22;5123099;27;8953;-76
2022/11/26 11:16:28;;;;;;;;;61.25;48.75;;;;;13.73;45.12;100428.47;5087770;28;8867;-76
2022/11/26 11:18:59;;;;;;;;;69.00;52.50;;;;;13.89;45.18;100431.09;5077322;28;8859;-77
2022/11/26 11:21:35;;;;;;;;;70.00;53.50;;;;;14.09;45.49;100424.09;5121860;27;8867;-77
2022/11/26 11:24:09;;;;;;;;;71.50;54.00;;;;;13.63;45.28;100424.09;5084403;28;8851;-76
2022/11/26 11:26:42;;;;;;;;;65.75;52.00;;;;;13.82;45.50;100427.63;5085856;28;9569;-75
2022/11/26 11:29:32;;;;;;;;;71.00;54.50;;;;;14.12;45.61;100428.47;5081827;28;8936;-75
2022/11/26 11:32:03;;;;;;;;;64.25;51.75;;;;;14.05;45.16;100427.59;5088438;28;9613;-76
2022/11/26 11:34:34;;;;;;;;;71.75;56.00;;;;;14.18;45.14;100429.34;5067910;28;8854;-75
2022/11/26 11:37:12;;;;;;;;;72.00;56.00;;;;;14.30;44.71;100422.34;5089219;28;8967;-77
2022/11/26 11:39:43;;;;;;;;;67.50;54.50;;;;;14.36;44.82;100433.66;5088902;28;8880;-75